sensor_id;sensor_type;location;lat;lon;timestamp;P1;durP1;ratioP1;P2;durP2;ratioP2
56401;SDS011;42299;35.160;26.100;2022-12-10T00:01:04;24.35;;;14.50;;
56401;SDS011;42299;35.160;26.100;2022-12-10T00:02:26;26.83;;;14.88;;
56401;SDS011;42299;35.160;26.100;2022-12-10T00:03:50;25.95;;;14.65;;
56401;SDS011;42299;35.160;26.100;2022-12-10T00:05:13;27.00;;;14.68;;
56401;SDS011;42299;35.160;26.100;2022-12-10T00:06:36;27.10;;;14.68;;
56401;SDS011;42299;35.160;26.100;2022-12-10T00:07:58;32.45;;;15.88;;
56401;SDS011;42299;35.160;26.100;2022-12-10T00:09:21;28.58;;;14.63;;
56401;SDS011;42299;35.160;26.100;2022-12-10T00:10:43;22.83;;;14.60;;
56401;SDS011;42299;35.160;26.100;2022-12-10T00:12:04;27.92;;;14.80;;
56401;SDS011;42299;35.160;26.100;2022-12-10T00:13:27;29.73;;;15.80;;
56401;SDS011;42299;35.160;26.100;2022-12-10T00:14:48;37.58;;;16.67;;
56401;SDS011;42299;35.160;26.100;2022-12-10T00:16:13;28.45;;;15.65;;
56401;SDS011;42299;35.160;26.100;2022-12-10T00:17:35;33.03;;;15.70;;
56401;SDS011;42299;35.160;26.100;2022-12-10T00:18:57;24.58;;;13.82;;
56401;SDS011;42299;35.160;26.100;2022-12-10T00:20:18;27.67;;;15.40;;
56401;SDS011;42299;35.160;26.100;2022-12-10T00:21:41;33.53;;;14.75;;
56401;SDS011;42299;35.160;26.100;2022-12-10T00:23:05;29.23;;;15.23;;
56401;SDS011;42299;35.160;26.100;2022-12-10T00:24:27;24.58;;;13.40;;
56401;SDS011;42299;35.160;26.100;2022-12-10T00:25:49;23.48;;;14.88;;
56401;SDS011;42299;35.160;26.100;2022-12-10T00:27:10;30.85;;;15.30;;
56401;SDS011;42299;35.160;26.100;2022-12-10T00:28:33;29.77;;;16.05;;
56401;SDS011;42299;35.160;26.100;2022-12-10T00:29:55;35.10;;;16.45;;
56401;SDS011;42299;35.160;26.100;2022-12-10T00:31:19;28.13;;;16.23;;
56401;SDS011;42299;35.160;26.100;2022-12-10T00:32:41;29.88;;;15.00;;
56401;SDS011;42299;35.160;26.100;2022-12-10T00:34:04;25.75;;;15.55;;
56401;SDS011;42299;35.160;26.100;2022-12-10T00:35:28;33.58;;;15.95;;
56401;SDS011;42299;35.160;26.100;2022-12-10T00:36:49;28.40;;;14.20;;
56401;SDS011;42299;35.160;26.100;2022-12-10T00:38:12;25.77;;;14.65;;
56401;SDS011;42299;35.160;26.100;2022-12-10T00:39:33;25.55;;;14.35;;
56401;SDS011;42299;35.160;26.100;2022-12-10T00:40:55;26.95;;;14.63;;
56401;SDS011;42299;35.160;26.100;2022-12-10T00:42:16;28.92;;;15.80;;
56401;SDS011;42299;35.160;26.100;2022-12-10T00:43:40;26.42;;;14.85;;
56401;SDS011;42299;35.160;26.100;2022-12-10T00:45:02;23.80;;;14.98;;
56401;SDS011;42299;35.160;26.100;2022-12-10T00:46:27;29.67;;;15.10;;
56401;SDS011;42299;35.160;26.100;2022-12-10T00:47:48;25.58;;;14.07;;
56401;SDS011;42299;35.160;26.100;2022-12-10T00:49:11;28.92;;;14.98;;
56401;SDS011;42299;35.160;26.100;2022-12-10T00:50:34;22.75;;;13.32;;
56401;SDS011;42299;35.160;26.100;2022-12-10T00:51:55;22.92;;;13.77;;
56401;SDS011;42299;35.160;26.100;2022-12-10T00:53:17;26.52;;;15.13;;
56401;SDS011;42299;35.160;26.100;2022-12-10T00:54:39;30.45;;;14.30;;
56401;SDS011;42299;35.160;26.100;2022-12-10T00:56:01;26.40;;;15.40;;
56401;SDS011;42299;35.160;26.100;2022-12-10T00:57:23;25.35;;;14.27;;
56401;SDS011;42299;35.160;26.100;2022-12-10T00:58:46;32.67;;;16.20;;
56401;SDS011;42299;35.160;26.100;2022-12-10T01:02:54;25.20;;;13.40;;
56401;SDS011;42299;35.160;26.100;2022-12-10T01:04:17;29.42;;;13.77;;
56401;SDS011;42299;35.160;26.100;2022-12-10T01:05:40;23.90;;;13.30;;
56401;SDS011;42299;35.160;26.100;2022-12-10T01:07:01;25.25;;;13.40;;
56401;SDS011;42299;35.160;26.100;2022-12-10T01:08:24;31.08;;;13.88;;
56401;SDS011;42299;35.160;26.100;2022-12-10T01:09:45;28.77;;;14.48;;
56401;SDS011;42299;35.160;26.100;2022-12-10T01:11:08;24.27;;;14.20;;
56401;SDS011;42299;35.160;26.100;2022-12-10T01:12:30;28.45;;;13.27;;
56401;SDS011;42299;35.160;26.100;2022-12-10T01:13:52;27.85;;;13.00;;
56401;SDS011;42299;35.160;26.100;2022-12-10T01:15:13;25.20;;;13.25;;
56401;SDS011;42299;35.160;26.100;2022-12-10T01:16:39;26.55;;;13.30;;
56401;SDS011;42299;35.160;26.100;2022-12-10T01:18:04;28.38;;;12.95;;
56401;SDS011;42299;35.160;26.100;2022-12-10T01:19:25;29.67;;;13.77;;
56401;SDS011;42299;35.160;26.100;2022-12-10T01:20:47;25.05;;;14.07;;
56401;SDS011;42299;35.160;26.100;2022-12-10T01:22:09;23.50;;;13.75;;
56401;SDS011;42299;35.160;26.100;2022-12-10T01:23:32;29.50;;;14.35;;
56401;SDS011;42299;35.160;26.100;2022-12-10T01:24:53;26.00;;;13.00;;
56401;SDS011;42299;35.160;26.100;2022-12-10T01:26:16;21.58;;;13.40;;
56401;SDS011;42299;35.160;26.100;2022-12-10T01:27:39;27.65;;;12.57;;
56401;SDS011;42299;35.160;26.100;2022-12-10T01:29:02;26.98;;;14.00;;
56401;SDS011;42299;35.160;26.100;2022-12-10T01:30:26;25.20;;;13.63;;
56401;SDS011;42299;35.160;26.100;2022-12-10T01:31:51;21.67;;;11.85;;
56401;SDS011;42299;35.160;26.100;2022-12-10T01:33:13;25.55;;;12.77;;
56401;SDS011;42299;35.160;26.100;2022-12-10T01:34:35;24.92;;;13.13;;
56401;SDS011;42299;35.160;26.100;2022-12-10T01:36:00;31.48;;;13.38;;
56401;SDS011;42299;35.160;26.100;2022-12-10T01:37:23;32.50;;;13.88;;
56401;SDS011;42299;35.160;26.100;2022-12-10T01:38:46;28.10;;;13.95;;
56401;SDS011;42299;35.160;26.100;2022-12-10T01:40:08;25.27;;;12.55;;
56401;SDS011;42299;35.160;26.100;2022-12-10T01:41:32;24.70;;;13.23;;
56401;SDS011;42299;35.160;26.100;2022-12-10T01:42:54;28.25;;;14.85;;
56401;SDS011;42299;35.160;26.100;2022-12-10T01:46:16;27.38;;;14.93;;
56401;SDS011;42299;35.160;26.100;2022-12-10T01:47:41;27.77;;;15.00;;
56401;SDS011;42299;35.160;26.100;2022-12-10T01:49:04;29.65;;;14.65;;
56401;SDS011;42299;35.160;26.100;2022-12-10T01:50:27;23.92;;;13.23;;
56401;SDS011;42299;35.160;26.100;2022-12-10T01:51:50;25.85;;;13.27;;
56401;SDS011;42299;35.160;26.100;2022-12-10T01:53:14;33.70;;;14.05;;
56401;SDS011;42299;35.160;26.100;2022-12-10T01:54:39;27.30;;;14.10;;
56401;SDS011;42299;35.160;26.100;2022-12-10T01:56:02;29.30;;;14.65;;
56401;SDS011;42299;35.160;26.100;2022-12-10T01:57:25;24.33;;;11.70;;
56401;SDS011;42299;35.160;26.100;2022-12-10T01:58:49;24.40;;;12.38;;
56401;SDS011;42299;35.160;26.100;2022-12-10T02:00:14;22.70;;;13.13;;
56401;SDS011;42299;35.160;26.100;2022-12-10T02:01:38;19.35;;;12.40;;
56401;SDS011;42299;35.160;26.100;2022-12-10T02:03:11;30.05;;;13.85;;
56401;SDS011;42299;35.160;26.100;2022-12-10T02:04:41;28.58;;;13.07;;
56401;SDS011;42299;35.160;26.100;2022-12-10T02:06:16;26.77;;;14.45;;
56401;SDS011;42299;35.160;26.100;2022-12-10T02:07:50;27.50;;;14.27;;
56401;SDS011;42299;35.160;26.100;2022-12-10T02:09:23;31.50;;;15.38;;
56401;SDS011;42299;35.160;26.100;2022-12-10T02:10:55;27.25;;;14.20;;
56401;SDS011;42299;35.160;26.100;2022-12-10T02:12:27;26.63;;;12.32;;
56401;SDS011;42299;35.160;26.100;2022-12-10T02:13:57;27.30;;;13.90;;
56401;SDS011;42299;35.160;26.100;2022-12-10T02:15:24;27.10;;;13.85;;
56401;SDS011;42299;35.160;26.100;2022-12-10T02:16:51;28.23;;;14.00;;
56401;SDS011;42299;35.160;26.100;2022-12-10T02:18:21;23.75;;;14.18;;
56401;SDS011;42299;35.160;26.100;2022-12-10T02:19:52;27.30;;;13.27;;
56401;SDS011;42299;35.160;26.100;2022-12-10T02:21:21;27.25;;;12.77;;
56401;SDS011;42299;35.160;26.100;2022-12-10T02:22:47;24.98;;;13.73;;
56401;SDS011;42299;35.160;26.100;2022-12-10T02:24:13;25.45;;;13.13;;
56401;SDS011;42299;35.160;26.100;2022-12-10T02:25:40;22.88;;;12.73;;
56401;SDS011;42299;35.160;26.100;2022-12-10T02:27:11;25.30;;;13.75;;
56401;SDS011;42299;35.160;26.100;2022-12-10T02:30:09;28.90;;;13.95;;
56401;SDS011;42299;35.160;26.100;2022-12-10T02:31:31;25.05;;;13.35;;
56401;SDS011;42299;35.160;26.100;2022-12-10T02:32:56;31.52;;;14.50;;
56401;SDS011;42299;35.160;26.100;2022-12-10T02:34:23;20.70;;;12.20;;
56401;SDS011;42299;35.160;26.100;2022-12-10T02:35:49;31.00;;;13.25;;
56401;SDS011;42299;35.160;26.100;2022-12-10T02:37:13;30.40;;;13.85;;
56401;SDS011;42299;35.160;26.100;2022-12-10T02:38:42;24.10;;;12.23;;
56401;SDS011;42299;35.160;26.100;2022-12-10T02:40:07;29.33;;;13.15;;
56401;SDS011;42299;35.160;26.100;2022-12-10T02:41:36;26.63;;;11.95;;
56401;SDS011;42299;35.160;26.100;2022-12-10T02:43:03;25.02;;;12.20;;
56401;SDS011;42299;35.160;26.100;2022-12-10T02:44:26;29.25;;;12.15;;
56401;SDS011;42299;35.160;26.100;2022-12-10T02:45:53;27.42;;;12.48;;
56401;SDS011;42299;35.160;26.100;2022-12-10T02:47:17;25.90;;;12.05;;
56401;SDS011;42299;35.160;26.100;2022-12-10T02:48:43;24.83;;;12.50;;
56401;SDS011;42299;35.160;26.100;2022-12-10T02:50:08;22.02;;;13.00;;
56401;SDS011;42299;35.160;26.100;2022-12-10T02:51:34;26.23;;;12.65;;
56401;SDS011;42299;35.160;26.100;2022-12-10T02:52:55;26.33;;;12.48;;
56401;SDS011;42299;35.160;26.100;2022-12-10T02:54:33;24.92;;;12.80;;
56401;SDS011;42299;35.160;26.100;2022-12-10T02:56:05;26.33;;;13.45;;
56401;SDS011;42299;35.160;26.100;2022-12-10T02:57:42;22.83;;;12.48;;
56401;SDS011;42299;35.160;26.100;2022-12-10T02:59:19;22.73;;;12.68;;
56401;SDS011;42299;35.160;26.100;2022-12-10T03:00:50;26.27;;;12.40;;
56401;SDS011;42299;35.160;26.100;2022-12-10T03:02:20;24.98;;;13.40;;
56401;SDS011;42299;35.160;26.100;2022-12-10T03:03:52;23.05;;;12.65;;
56401;SDS011;42299;35.160;26.100;2022-12-10T03:05:20;19.40;;;11.38;;
56401;SDS011;42299;35.160;26.100;2022-12-10T03:06:50;28.38;;;13.18;;
56401;SDS011;42299;35.160;26.100;2022-12-10T03:08:16;30.27;;;13.20;;
56401;SDS011;42299;35.160;26.100;2022-12-10T03:09:44;23.83;;;11.98;;
56401;SDS011;42299;35.160;26.100;2022-12-10T03:11:11;26.38;;;12.45;;
56401;SDS011;42299;35.160;26.100;2022-12-10T03:12:35;22.77;;;11.73;;
56401;SDS011;42299;35.160;26.100;2022-12-10T03:14:02;28.88;;;13.05;;
56401;SDS011;42299;35.160;26.100;2022-12-10T03:15:29;24.55;;;11.10;;
56401;SDS011;42299;35.160;26.100;2022-12-10T03:16:56;20.95;;;12.63;;
56401;SDS011;42299;35.160;26.100;2022-12-10T03:18:20;27.75;;;11.25;;
56401;SDS011;42299;35.160;26.100;2022-12-10T03:19:46;23.77;;;11.18;;
56401;SDS011;42299;35.160;26.100;2022-12-10T03:21:11;22.88;;;10.63;;
56401;SDS011;42299;35.160;26.100;2022-12-10T03:22:36;28.15;;;11.65;;
56401;SDS011;42299;35.160;26.100;2022-12-10T03:24:01;27.08;;;11.13;;
56401;SDS011;42299;35.160;26.100;2022-12-10T03:25:26;22.17;;;9.80;;
56401;SDS011;42299;35.160;26.100;2022-12-10T03:26:52;19.38;;;9.60;;
56401;SDS011;42299;35.160;26.100;2022-12-10T03:28:14;21.45;;;9.45;;
56401;SDS011;42299;35.160;26.100;2022-12-10T03:29:39;23.92;;;9.07;;
56401;SDS011;42299;35.160;26.100;2022-12-10T03:31:07;18.08;;;9.30;;
56401;SDS011;42299;35.160;26.100;2022-12-10T03:32:32;21.85;;;10.50;;
56401;SDS011;42299;35.160;26.100;2022-12-10T03:33:55;17.75;;;9.30;;
56401;SDS011;42299;35.160;26.100;2022-12-10T03:35:17;17.45;;;8.23;;
56401;SDS011;42299;35.160;26.100;2022-12-10T03:36:42;21.30;;;9.07;;
56401;SDS011;42299;35.160;26.100;2022-12-10T03:38:04;10.07;;;5.82;;
56401;SDS011;42299;35.160;26.100;2022-12-10T03:39:27;16.95;;;7.32;;
56401;SDS011;42299;35.160;26.100;2022-12-10T03:40:50;21.73;;;8.18;;
56401;SDS011;42299;35.160;26.100;2022-12-10T03:42:13;15.57;;;6.55;;
56401;SDS011;42299;35.160;26.100;2022-12-10T03:43:34;18.35;;;6.60;;
56401;SDS011;42299;35.160;26.100;2022-12-10T03:44:56;15.77;;;8.02;;
56401;SDS011;42299;35.160;26.100;2022-12-10T03:46:17;16.83;;;7.10;;
56401;SDS011;42299;35.160;26.100;2022-12-10T03:47:41;14.38;;;6.28;;
56401;SDS011;42299;35.160;26.100;2022-12-10T03:49:04;13.68;;;6.38;;
56401;SDS011;42299;35.160;26.100;2022-12-10T03:50:25;22.73;;;7.35;;
56401;SDS011;42299;35.160;26.100;2022-12-10T03:51:48;14.63;;;6.15;;
56401;SDS011;42299;35.160;26.100;2022-12-10T03:53:10;13.25;;;5.20;;
56401;SDS011;42299;35.160;26.100;2022-12-10T03:54:32;13.20;;;5.40;;
56401;SDS011;42299;35.160;26.100;2022-12-10T03:55:53;12.93;;;4.65;;
56401;SDS011;42299;35.160;26.100;2022-12-10T03:57:16;16.17;;;6.03;;
56401;SDS011;42299;35.160;26.100;2022-12-10T03:58:38;17.67;;;5.32;;
56401;SDS011;42299;35.160;26.100;2022-12-10T04:00:00;14.05;;;4.90;;
56401;SDS011;42299;35.160;26.100;2022-12-10T04:01:32;17.70;;;6.28;;
56401;SDS011;42299;35.160;26.100;2022-12-10T04:02:56;17.33;;;5.88;;
56401;SDS011;42299;35.160;26.100;2022-12-10T04:04:18;16.67;;;5.63;;
56401;SDS011;42299;35.160;26.100;2022-12-10T04:05:40;14.85;;;5.47;;
56401;SDS011;42299;35.160;26.100;2022-12-10T04:07:02;14.35;;;5.07;;
56401;SDS011;42299;35.160;26.100;2022-12-10T04:08:25;16.35;;;5.10;;
56401;SDS011;42299;35.160;26.100;2022-12-10T04:09:46;20.15;;;5.55;;
56401;SDS011;42299;35.160;26.100;2022-12-10T04:11:09;12.73;;;5.10;;
56401;SDS011;42299;35.160;26.100;2022-12-10T04:12:31;13.48;;;5.85;;
56401;SDS011;42299;35.160;26.100;2022-12-10T04:13:54;21.10;;;6.30;;
56401;SDS011;42299;35.160;26.100;2022-12-10T04:15:37;16.67;;;6.80;;
56401;SDS011;42299;35.160;26.100;2022-12-10T04:17:17;17.50;;;5.35;;
56401;SDS011;42299;35.160;26.100;2022-12-10T04:18:41;12.48;;;5.75;;
56401;SDS011;42299;35.160;26.100;2022-12-10T04:20:03;14.05;;;5.57;;
56401;SDS011;42299;35.160;26.100;2022-12-10T04:21:26;13.82;;;5.68;;
56401;SDS011;42299;35.160;26.100;2022-12-10T04:23:07;10.38;;;4.57;;
56401;SDS011;42299;35.160;26.100;2022-12-10T04:24:47;14.18;;;5.40;;
56401;SDS011;42299;35.160;26.100;2022-12-10T04:26:26;17.35;;;5.28;;
56401;SDS011;42299;35.160;26.100;2022-12-10T04:28:05;20.73;;;6.60;;
56401;SDS011;42299;35.160;26.100;2022-12-10T04:29:29;19.83;;;6.45;;
56401;SDS011;42299;35.160;26.100;2022-12-10T04:30:50;25.85;;;6.28;;
56401;SDS011;42299;35.160;26.100;2022-12-10T04:32:13;18.95;;;6.10;;
56401;SDS011;42299;35.160;26.100;2022-12-10T04:33:34;12.85;;;5.20;;
56401;SDS011;42299;35.160;26.100;2022-12-10T04:34:58;15.57;;;5.38;;
56401;SDS011;42299;35.160;26.100;2022-12-10T04:36:19;13.80;;;5.55;;
56401;SDS011;42299;35.160;26.100;2022-12-10T04:37:42;16.90;;;5.80;;
56401;SDS011;42299;35.160;26.100;2022-12-10T04:39:05;17.35;;;5.80;;
56401;SDS011;42299;35.160;26.100;2022-12-10T04:40:26;19.58;;;6.38;;
56401;SDS011;42299;35.160;26.100;2022-12-10T04:41:48;16.95;;;5.40;;
56401;SDS011;42299;35.160;26.100;2022-12-10T04:43:12;12.68;;;4.82;;
56401;SDS011;42299;35.160;26.100;2022-12-10T04:44:34;13.60;;;4.97;;
56401;SDS011;42299;35.160;26.100;2022-12-10T04:45:57;15.70;;;4.53;;
56401;SDS011;42299;35.160;26.100;2022-12-10T04:47:18;18.38;;;5.13;;
56401;SDS011;42299;35.160;26.100;2022-12-10T04:48:41;18.13;;;6.05;;
56401;SDS011;42299;35.160;26.100;2022-12-10T04:50:04;13.02;;;4.20;;
56401;SDS011;42299;35.160;26.100;2022-12-10T04:51:27;15.57;;;4.60;;
56401;SDS011;42299;35.160;26.100;2022-12-10T04:52:48;22.45;;;5.70;;
56401;SDS011;42299;35.160;26.100;2022-12-10T04:54:10;17.42;;;5.22;;
56401;SDS011;42299;35.160;26.100;2022-12-10T04:55:32;20.23;;;5.82;;
56401;SDS011;42299;35.160;26.100;2022-12-10T04:56:55;23.02;;;6.35;;
56401;SDS011;42299;35.160;26.100;2022-12-10T04:58:16;19.80;;;7.93;;
56401;SDS011;42299;35.160;26.100;2022-12-10T04:59:38;17.40;;;7.63;;
56401;SDS011;42299;35.160;26.100;2022-12-10T05:01:01;21.00;;;11.63;;
56401;SDS011;42299;35.160;26.100;2022-12-10T05:02:24;29.40;;;18.67;;
56401;SDS011;42299;35.160;26.100;2022-12-10T05:03:47;30.23;;;19.50;;
56401;SDS011;42299;35.160;26.100;2022-12-10T05:05:09;32.80;;;21.02;;
56401;SDS011;42299;35.160;26.100;2022-12-10T05:06:32;22.48;;;14.82;;
56401;SDS011;42299;35.160;26.100;2022-12-10T05:07:55;21.05;;;7.97;;
56401;SDS011;42299;35.160;26.100;2022-12-10T05:09:17;21.40;;;6.57;;
56401;SDS011;42299;35.160;26.100;2022-12-10T05:10:39;15.50;;;7.22;;
56401;SDS011;42299;35.160;26.100;2022-12-10T05:12:01;21.30;;;9.43;;
56401;SDS011;42299;35.160;26.100;2022-12-10T05:13:23;20.27;;;9.32;;
56401;SDS011;42299;35.160;26.100;2022-12-10T05:14:44;13.73;;;6.72;;
56401;SDS011;42299;35.160;26.100;2022-12-10T05:16:09;15.77;;;6.47;;
56401;SDS011;42299;35.160;26.100;2022-12-10T05:17:32;19.05;;;8.88;;
56401;SDS011;42299;35.160;26.100;2022-12-10T05:18:55;14.95;;;7.32;;
56401;SDS011;42299;35.160;26.100;2022-12-10T05:20:18;18.67;;;9.20;;
56401;SDS011;42299;35.160;26.100;2022-12-10T05:21:41;17.65;;;7.05;;
56401;SDS011;42299;35.160;26.100;2022-12-10T05:23:21;30.95;;;20.33;;
56401;SDS011;42299;35.160;26.100;2022-12-10T05:24:50;33.67;;;24.10;;
56401;SDS011;42299;35.160;26.100;2022-12-10T05:26:14;36.85;;;25.00;;
56401;SDS011;42299;35.160;26.100;2022-12-10T05:27:38;41.42;;;28.35;;
56401;SDS011;42299;35.160;26.100;2022-12-10T05:29:01;41.53;;;23.58;;
56401;SDS011;42299;35.160;26.100;2022-12-10T05:30:23;35.90;;;24.33;;
56401;SDS011;42299;35.160;26.100;2022-12-10T05:31:44;24.88;;;13.52;;
56401;SDS011;42299;35.160;26.100;2022-12-10T05:33:07;21.02;;;12.38;;
56401;SDS011;42299;35.160;26.100;2022-12-10T05:34:28;34.67;;;20.50;;
56401;SDS011;42299;35.160;26.100;2022-12-10T05:35:55;19.52;;;8.88;;
56401;SDS011;42299;35.160;26.100;2022-12-10T05:37:18;19.38;;;7.15;;
56401;SDS011;42299;35.160;26.100;2022-12-10T05:38:40;19.50;;;6.82;;
56401;SDS011;42299;35.160;26.100;2022-12-10T05:40:02;18.63;;;5.85;;
56401;SDS011;42299;35.160;26.100;2022-12-10T05:41:26;22.70;;;7.13;;
56401;SDS011;42299;35.160;26.100;2022-12-10T05:42:49;20.25;;;6.50;;
56401;SDS011;42299;35.160;26.100;2022-12-10T05:44:11;21.95;;;6.32;;
56401;SDS011;42299;35.160;26.100;2022-12-10T05:45:34;10.85;;;4.80;;
56401;SDS011;42299;35.160;26.100;2022-12-10T05:46:55;17.40;;;6.00;;
56401;SDS011;42299;35.160;26.100;2022-12-10T05:48:17;16.33;;;6.63;;
56401;SDS011;42299;35.160;26.100;2022-12-10T05:49:39;18.35;;;8.73;;
56401;SDS011;42299;35.160;26.100;2022-12-10T05:51:04;25.65;;;11.27;;
56401;SDS011;42299;35.160;26.100;2022-12-10T05:52:27;36.30;;;24.88;;
56401;SDS011;42299;35.160;26.100;2022-12-10T05:53:50;35.08;;;26.48;;
56401;SDS011;42299;35.160;26.100;2022-12-10T05:55:11;49.00;;;35.25;;
56401;SDS011;42299;35.160;26.100;2022-12-10T05:56:34;58.33;;;48.85;;
56401;SDS011;42299;35.160;26.100;2022-12-10T05:57:58;68.00;;;55.30;;
56401;SDS011;42299;35.160;26.100;2022-12-10T05:59:19;89.93;;;74.45;;
56401;SDS011;42299;35.160;26.100;2022-12-10T06:00:42;84.78;;;74.72;;
56401;SDS011;42299;35.160;26.100;2022-12-10T06:02:04;91.03;;;80.32;;
56401;SDS011;42299;35.160;26.100;2022-12-10T06:03:26;86.75;;;75.60;;
56401;SDS011;42299;35.160;26.100;2022-12-10T06:04:49;71.90;;;60.85;;
56401;SDS011;42299;35.160;26.100;2022-12-10T06:06:13;68.40;;;57.35;;
56401;SDS011;42299;35.160;26.100;2022-12-10T06:07:37;45.10;;;37.28;;
56401;SDS011;42299;35.160;26.100;2022-12-10T06:09:00;49.40;;;38.70;;
56401;SDS011;42299;35.160;26.100;2022-12-10T06:10:23;50.40;;;38.60;;
56401;SDS011;42299;35.160;26.100;2022-12-10T06:11:44;46.88;;;34.97;;
56401;SDS011;42299;35.160;26.100;2022-12-10T06:13:06;33.67;;;22.50;;
56401;SDS011;42299;35.160;26.100;2022-12-10T06:14:27;21.33;;;10.93;;
56401;SDS011;42299;35.160;26.100;2022-12-10T06:15:50;26.20;;;13.38;;
56401;SDS011;42299;35.160;26.100;2022-12-10T06:17:11;22.83;;;12.10;;
56401;SDS011;42299;35.160;26.100;2022-12-10T06:18:33;24.70;;;9.57;;
56401;SDS011;42299;35.160;26.100;2022-12-10T06:19:55;12.05;;;4.47;;
56401;SDS011;42299;35.160;26.100;2022-12-10T06:21:19;9.23;;;2.80;;
56401;SDS011;42299;35.160;26.100;2022-12-10T06:22:41;14.63;;;3.78;;
56401;SDS011;42299;35.160;26.100;2022-12-10T06:24:03;19.38;;;3.90;;
56401;SDS011;42299;35.160;26.100;2022-12-10T06:25:25;13.13;;;4.05;;
56401;SDS011;42299;35.160;26.100;2022-12-10T06:26:48;16.58;;;2.78;;
56401;SDS011;42299;35.160;26.100;2022-12-10T06:28:09;15.60;;;3.00;;
56401;SDS011;42299;35.160;26.100;2022-12-10T06:29:32;24.02;;;5.13;;
56401;SDS011;42299;35.160;26.100;2022-12-10T06:30:54;16.48;;;3.80;;
56401;SDS011;42299;35.160;26.100;2022-12-10T06:32:19;14.05;;;3.20;;
56401;SDS011;42299;35.160;26.100;2022-12-10T06:33:41;22.20;;;3.40;;
56401;SDS011;42299;35.160;26.100;2022-12-10T06:35:04;13.20;;;2.85;;
56401;SDS011;42299;35.160;26.100;2022-12-10T06:36:29;19.92;;;3.40;;
56401;SDS011;42299;35.160;26.100;2022-12-10T06:37:51;25.23;;;4.72;;
56401;SDS011;42299;35.160;26.100;2022-12-10T06:39:13;10.98;;;3.03;;
56401;SDS011;42299;35.160;26.100;2022-12-10T06:40:36;17.95;;;2.97;;
56401;SDS011;42299;35.160;26.100;2022-12-10T06:42:00;17.75;;;3.90;;
56401;SDS011;42299;35.160;26.100;2022-12-10T06:43:23;19.15;;;3.35;;
56401;SDS011;42299;35.160;26.100;2022-12-10T06:44:45;13.27;;;3.15;;
56401;SDS011;42299;35.160;26.100;2022-12-10T06:46:08;17.67;;;4.03;;
56401;SDS011;42299;35.160;26.100;2022-12-10T06:47:31;18.70;;;4.63;;
56401;SDS011;42299;35.160;26.100;2022-12-10T06:48:53;26.55;;;4.75;;
56401;SDS011;42299;35.160;26.100;2022-12-10T06:50:16;18.25;;;4.03;;
56401;SDS011;42299;35.160;26.100;2022-12-10T06:51:40;21.40;;;3.70;;
56401;SDS011;42299;35.160;26.100;2022-12-10T06:53:03;12.05;;;2.75;;
56401;SDS011;42299;35.160;26.100;2022-12-10T06:54:24;14.63;;;3.63;;
56401;SDS011;42299;35.160;26.100;2022-12-10T06:55:47;20.85;;;4.63;;
56401;SDS011;42299;35.160;26.100;2022-12-10T06:57:08;18.60;;;6.10;;
56401;SDS011;42299;35.160;26.100;2022-12-10T06:58:31;22.20;;;4.07;;
56401;SDS011;42299;35.160;26.100;2022-12-10T06:59:52;20.25;;;3.72;;
56401;SDS011;42299;35.160;26.100;2022-12-10T07:01:15;19.05;;;3.85;;
56401;SDS011;42299;35.160;26.100;2022-12-10T07:02:40;17.45;;;3.60;;
56401;SDS011;42299;35.160;26.100;2022-12-10T07:04:02;12.80;;;3.17;;
56401;SDS011;42299;35.160;26.100;2022-12-10T07:05:24;20.67;;;3.78;;
56401;SDS011;42299;35.160;26.100;2022-12-10T07:06:47;23.00;;;3.65;;
56401;SDS011;42299;35.160;26.100;2022-12-10T07:08:09;15.05;;;3.63;;
56401;SDS011;42299;35.160;26.100;2022-12-10T07:09:31;19.92;;;3.53;;
56401;SDS011;42299;35.160;26.100;2022-12-10T07:10:54;14.50;;;2.53;;
56401;SDS011;42299;35.160;26.100;2022-12-10T07:12:16;18.30;;;3.20;;
56401;SDS011;42299;35.160;26.100;2022-12-10T07:13:38;18.73;;;3.95;;
56401;SDS011;42299;35.160;26.100;2022-12-10T07:15:02;19.92;;;3.28;;
56401;SDS011;42299;35.160;26.100;2022-12-10T07:16:26;17.35;;;3.97;;
56401;SDS011;42299;35.160;26.100;2022-12-10T07:17:54;19.45;;;3.05;;
56401;SDS011;42299;35.160;26.100;2022-12-10T07:19:15;22.88;;;3.28;;
56401;SDS011;42299;35.160;26.100;2022-12-10T07:20:38;21.17;;;3.53;;
56401;SDS011;42299;35.160;26.100;2022-12-10T07:22:02;16.50;;;4.15;;
56401;SDS011;42299;35.160;26.100;2022-12-10T07:23:25;18.92;;;3.10;;
56401;SDS011;42299;35.160;26.100;2022-12-10T07:24:47;11.05;;;2.88;;
56401;SDS011;42299;35.160;26.100;2022-12-10T07:26:10;18.33;;;3.55;;
56401;SDS011;42299;35.160;26.100;2022-12-10T07:27:33;20.40;;;6.00;;
56401;SDS011;42299;35.160;26.100;2022-12-10T07:28:55;18.27;;;3.40;;
56401;SDS011;42299;35.160;26.100;2022-12-10T07:30:17;29.42;;;6.03;;
56401;SDS011;42299;35.160;26.100;2022-12-10T07:31:40;8.98;;;2.80;;
56401;SDS011;42299;35.160;26.100;2022-12-10T07:33:02;17.45;;;3.28;;
56401;SDS011;42299;35.160;26.100;2022-12-10T07:34:25;17.98;;;3.80;;
56401;SDS011;42299;35.160;26.100;2022-12-10T07:35:48;25.02;;;9.27;;
56401;SDS011;42299;35.160;26.100;2022-12-10T07:37:12;28.77;;;11.40;;
56401;SDS011;42299;35.160;26.100;2022-12-10T07:38:35;31.90;;;16.10;;
56401;SDS011;42299;35.160;26.100;2022-12-10T07:39:58;41.58;;;26.20;;
56401;SDS011;42299;35.160;26.100;2022-12-10T07:41:21;40.53;;;25.40;;
56401;SDS011;42299;35.160;26.100;2022-12-10T07:42:43;41.22;;;25.92;;
56401;SDS011;42299;35.160;26.100;2022-12-10T07:44:08;41.50;;;24.02;;
56401;SDS011;42299;35.160;26.100;2022-12-10T07:45:33;37.83;;;21.17;;
56401;SDS011;42299;35.160;26.100;2022-12-10T07:46:55;26.88;;;6.07;;
56401;SDS011;42299;35.160;26.100;2022-12-10T07:48:17;17.00;;;4.03;;
56401;SDS011;42299;35.160;26.100;2022-12-10T07:49:39;14.40;;;3.35;;
56401;SDS011;42299;35.160;26.100;2022-12-10T07:51:03;22.02;;;4.25;;
56401;SDS011;42299;35.160;26.100;2022-12-10T07:52:27;29.85;;;4.32;;
56401;SDS011;42299;35.160;26.100;2022-12-10T07:53:50;20.27;;;6.80;;
56401;SDS011;42299;35.160;26.100;2022-12-10T07:55:14;28.73;;;9.15;;
56401;SDS011;42299;35.160;26.100;2022-12-10T07:56:35;18.55;;;4.40;;
56401;SDS011;42299;35.160;26.100;2022-12-10T07:57:58;17.50;;;3.65;;
56401;SDS011;42299;35.160;26.100;2022-12-10T07:59:21;18.83;;;3.42;;
56401;SDS011;42299;35.160;26.100;2022-12-10T08:00:43;17.60;;;4.55;;
56401;SDS011;42299;35.160;26.100;2022-12-10T08:02:04;10.55;;;3.17;;
56401;SDS011;42299;35.160;26.100;2022-12-10T08:03:26;20.33;;;3.83;;
56401;SDS011;42299;35.160;26.100;2022-12-10T08:04:48;20.05;;;4.03;;
56401;SDS011;42299;35.160;26.100;2022-12-10T08:06:11;17.55;;;3.60;;
56401;SDS011;42299;35.160;26.100;2022-12-10T08:07:37;19.98;;;3.40;;
56401;SDS011;42299;35.160;26.100;2022-12-10T08:08:59;26.02;;;4.40;;
56401;SDS011;42299;35.160;26.100;2022-12-10T08:10:22;30.88;;;6.05;;
56401;SDS011;42299;35.160;26.100;2022-12-10T08:11:44;14.38;;;4.28;;
56401;SDS011;42299;35.160;26.100;2022-12-10T08:13:06;18.23;;;5.85;;
56401;SDS011;42299;35.160;26.100;2022-12-10T08:14:29;20.85;;;4.47;;